| time (UTC) | temp C | wind direction | speed KPH | gust KPH | rain 1hr cm | rain 24hr cm | rain mn cm | humidity % | barometer mb |
| 20260503213016 | 22 | 293 | 4.8 | 9.7 | 0.00 | 0.00 | 0.00 | 35 | 1018.1 |
| 20260503212016 | 22 | 270 | 8.0 | 12.9 | 0.00 | 0.00 | 0.00 | 36 | 1018.1 |
| 20260503211036 | 22 | 293 | 6.4 | 14.5 | 0.00 | 0.00 | 0.00 | 36 | 1018.1 |
| 20260503210016 | 22 | 225 | 6.4 | 14.5 | 0.00 | 0.00 | 0.00 | 38 | 1017.9 |
| 20260503205036 | 22 | 293 | 6.4 | 12.9 | 0.00 | 0.00 | 0.00 | 37 | 1018.0 |
| 20260503204056 | 22 | 270 | 11.3 | 24.1 | 0.00 | 0.00 | 0.00 | 38 | 1018.0 |
| 20260503203016 | 22 | 225 | 6.4 | 16.1 | 0.00 | 0.00 | 0.00 | 40 | 1018.2 |
| 20260503202016 | 22 | 270 | 8.0 | 17.7 | 0.00 | 0.00 | 0.00 | 41 | 1018.3 |
| 20260503201016 | 21 | 270 | 4.8 | 14.5 | 0.00 | 0.00 | 0.00 | 40 | 1018.6 |
| 20260503200016 | 21 | 315 | 4.8 | 11.3 | 0.00 | 0.00 | 0.00 | 41 | 1018.7 |
| 20260503195056 | 21 | 0 | 8.0 | 17.7 | 0.00 | 0.00 | 0.00 | 42 | 1018.9 |
| 20260503194036 | 21 | 0 | 11.3 | 19.3 | 0.00 | 0.00 | 0.00 | 43 | 1018.9 |
| 20260503193016 | 21 | 270 | 6.4 | 17.7 | 0.00 | 0.00 | 0.00 | 43 | 1019.2 |
| 20260503192016 | 21 | 293 | 12.9 | 20.9 | 0.00 | 0.00 | 0.00 | 45 | 1019.5 |
| 20260503191016 | 21 | 270 | 8.0 | 19.3 | 0.00 | 0.00 | 0.00 | 42 | 1019.7 |
| 20260503190016 | 21 | 0 | 6.4 | 16.1 | 0.00 | 0.00 | 0.00 | 40 | 1019.7 |
| 20260503185016 | 21 | 0 | 12.9 | 25.7 | 0.00 | 0.00 | 0.00 | 45 | 1019.8 |
| 20260503184016 | 20 | 0 | 3.2 | 14.5 | 0.00 | 0.00 | 0.00 | 44 | 1019.9 |
| 20260503183016 | 21 | 0 | 8.0 | 19.3 | 0.00 | 0.00 | 0.00 | 47 | 1020.1 |
| 20260503182016 | 21 | 0 | 14.5 | 20.9 | 0.00 | 0.00 | 0.00 | 43 | 1020.4 |
| 20260503181036 | 20 | 248 | 4.8 | 17.7 | 0.00 | 0.00 | 0.00 | 47 | 1020.3 |
| 20260503180016 | 20 | 270 | 8.0 | 20.9 | 0.00 | 0.00 | 0.00 | 48 | 1020.5 |
| 20260503175016 | 21 | 248 | 14.5 | 22.5 | 0.00 | 0.00 | 0.00 | 46 | 1020.6 |
| 20260503174016 | 20 | 248 | 11.3 | 19.3 | 0.00 | 0.00 | 0.00 | 48 | 1020.5 |
| 20260503173016 | 20 | 225 | 4.8 | 14.5 | 0.00 | 0.00 | 0.00 | 46 | 1020.7 |
| 20260503172016 | 20 | 0 | 8.0 | 16.1 | 0.00 | 0.00 | 0.00 | 50 | 1020.7 |
| 20260503171016 | 20 | 248 | 6.4 | 16.1 | 0.00 | 0.00 | 0.00 | 48 | 1020.9 |
| 20260503150116 | 17 | 0 | 3.2 | 6.4 | 0.00 | 0.20 | 0.00 | 74 | 1021.6 |
| 20260503131035 | 10 | 0 | 1.6 | 3.2 | 0.00 | 0.46 | 0.00 | 96 | 1021.2 |
| 20260503081057 | 8 | 0.0 | 0.0 | 0.00 | 1.42 | 0.00 | 93 | 1018.5 | |
| 20260503072037 | 9 | 0.0 | 0.0 | 0.00 | 1.63 | 0.00 | 93 | 1018.1 | |
| 20260503071017 | 9 | 0.0 | 0.0 | 0.00 | 1.68 | 0.00 | 93 | 1017.9 | |
| 20260503055017 | 10 | 0.0 | 0.0 | 0.00 | 1.88 | 0.00 | 93 | 1017.5 | |
| 20260503054017 | 11 | 0.0 | 0.0 | 0.00 | 1.91 | 0.00 | 93 | 1017.4 | |
| 20260503053017 | 11 | 0.0 | 0.0 | 0.00 | 1.93 | 0.00 | 93 | 1017.4 | |
| 20260503052017 | 11 | 0.0 | 0.0 | 0.00 | 1.93 | 0.00 | 93 | 1017.5 | |
| 20260503051037 | 11 | 0.0 | 3.2 | 0.00 | 1.93 | 0.00 | 93 | 1017.4 | |
| 20260503050017 | 11 | 113 | 1.6 | 4.8 | 0.00 | 1.93 | 0.00 | 93 | 1017.2 |
| 20260503045037 | 11 | 0.0 | 1.6 | 0.00 | 1.93 | 0.00 | 93 | 1017.2 | |
| 20260503044017 | 11 | 68 | 1.6 | 4.8 | 0.00 | 1.93 | 0.00 | 93 | 1017.2 |
| 20260503043017 | 11 | 0.0 | 0.0 | 0.00 | 1.93 | 0.00 | 93 | 1017.1 | |
| 20260503042017 | 11 | 0.0 | 0.0 | 0.00 | 1.93 | 0.00 | 93 | 1017.0 | |
| 20260503041017 | 11 | 0.0 | 0.0 | 0.00 | 1.93 | 0.00 | 93 | 1017.1 | |
| 20260503040016 | 11 | 0.0 | 1.6 | 0.00 | 1.93 | 1.93 | 93 | 1017.1 | |
| 20260503035017 | 11 | 0.0 | 1.6 | 0.00 | 1.93 | 1.93 | 93 | 1017.4 | |
| 20260503034017 | 11 | 0.0 | 3.2 | 0.00 | 1.93 | 1.93 | 92 | 1017.4 | |
| 20260503033017 | 11 | 0.0 | 3.2 | 0.00 | 1.93 | 1.93 | 92 | 1017.0 | |
| 20260503032017 | 11 | 0.0 | 3.2 | 0.00 | 1.93 | 1.93 | 92 | 1017.0 | |
| 20260503031017 | 11 | 68 | 1.6 | 6.4 | 0.00 | 1.93 | 1.93 | 92 | 1016.9 |
| 20260503030017 | 11 | 90 | 1.6 | 3.2 | 0.00 | 1.93 | 1.93 | 92 | 1016.6 |
| 20260503025017 | 11 | 0.0 | 0.0 | 0.00 | 1.93 | 1.93 | 92 | 1016.5 | |
| 20260503024017 | 11 | 0.0 | 0.0 | 0.00 | 1.93 | 1.93 | 91 | 1016.3 | |
| 20260503023017 | 11 | 0.0 | 0.0 | 0.00 | 1.93 | 1.93 | 91 | 1016.2 | |
| 20260503022017 | 11 | 0.0 | 0.0 | 0.00 | 1.93 | 1.93 | 91 | 1016.0 | |
| 20260503021037 | 11 | 0.0 | 0.0 | 0.00 | 1.93 | 1.93 | 91 | 1016.0 | |
| 20260503020037 | 11 | 0.0 | 0.0 | 0.00 | 1.93 | 1.93 | 90 | 1016.0 | |
| 20260503015037 | 11 | 0.0 | 0.0 | 0.00 | 1.93 | 1.93 | 89 | 1015.6 | |
| 20260503014037 | 11 | 0.0 | 0.0 | 0.00 | 1.93 | 1.93 | 88 | 1015.5 | |
| 20260503013017 | 11 | 0.0 | 0.0 | 0.00 | 1.93 | 1.93 | 88 | 1015.3 | |
| 20260503012016 | 11 | 0.0 | 0.0 | 0.00 | 1.93 | 1.93 | 88 | 1015.2 | |
| 20260503011017 | 11 | 0.0 | 0.0 | 0.00 | 1.93 | 1.93 | 88 | 1015.1 | |
| 20260503010017 | 12 | 0.0 | 0.0 | 0.00 | 1.93 | 1.93 | 87 | 1015.1 | |
| 20260503005016 | 12 | 0.0 | 0.0 | 0.00 | 1.93 | 1.93 | 87 | 1014.8 | |
| 20260503004017 | 12 | 0.0 | 1.6 | 0.00 | 1.93 | 1.93 | 86 | 1014.8 | |
| 20260503003017 | 12 | 0.0 | 0.0 | 0.00 | 1.93 | 1.93 | 84 | 1014.8 | |
| 20260503002017 | 13 | 0.0 | 0.0 | 0.00 | 1.93 | 1.93 | 84 | 1014.7 | |
| 20260503001016 | 13 | 0.0 | 0.0 | 0.00 | 1.93 | 1.93 | 83 | 1014.5 | |
| 20260503000017 | 13 | 0.0 | 1.6 | 0.00 | 1.93 | 1.93 | 83 | 1014.3 | |
| 20260502235016 | 13 | 0.0 | 1.6 | 0.00 | 1.93 | 1.93 | 84 | 1014.1 | |
| 20260502234037 | 13 | 0 | 1.6 | 4.8 | 0.00 | 1.93 | 1.93 | 84 | 1013.6 |
| 20260502233016 | 13 | 0 | 1.6 | 4.8 | 0.00 | 1.93 | 1.93 | 84 | 1013.5 |
| 20260502232017 | 13 | 0 | 1.6 | 4.8 | 0.00 | 1.93 | 1.93 | 85 | 1013.6 |
| 20260502231017 | 13 | 0 | 1.6 | 6.4 | 0.00 | 1.93 | 1.93 | 84 | 1013.8 |
| 20260502230036 | 13 | 0 | 1.6 | 8.0 | 0.00 | 1.93 | 1.93 | 85 | 1013.7 |
| 20260502225016 | 13 | 0.0 | 3.2 | 0.00 | 1.93 | 1.93 | 86 | 1013.6 | |
| 20260502224016 | 13 | 90 | 1.6 | 6.4 | 0.00 | 1.93 | 1.93 | 85 | 1013.6 |
| 20260502223016 | 13 | 90 | 1.6 | 6.4 | 0.00 | 1.93 | 1.93 | 85 | 1013.6 |
| 20260502222117 | 13 | 0.0 | 4.8 | 0.00 | 1.93 | 1.93 | 85 | 1013.5 | |
| 20260502221016 | 13 | 90 | 1.6 | 4.8 | 0.00 | 1.93 | 1.93 | 86 | 1013.4 |
| 20260502220016 | 13 | 90 | 1.6 | 6.4 | 0.00 | 1.93 | 1.93 | 85 | 1013.4 |
| 20260502215017 | 13 | 68 | 1.6 | 8.0 | 0.00 | 1.93 | 1.93 | 86 | 1013.3 |
| 20260502214016 | 13 | 0.0 | 4.8 | 0.00 | 1.93 | 1.93 | 86 | 1013.3 |